createdAt,value
2017-01-31T01:01:17.543Z,0
2017-01-31T01:02:17.046Z,0
2017-01-31T01:03:17.772Z,0
2017-01-31T01:04:17.311Z,0
2017-01-31T01:05:17.637Z,0
2017-01-31T01:06:17.578Z,0
2017-01-31T01:07:17.121Z,0
2017-01-31T01:08:17.455Z,0
2017-01-31T01:09:17.398Z,0
2017-01-31T01:10:17.357Z,0
2017-01-31T01:11:17.263Z,0
2017-01-31T01:12:17.204Z,0
2017-01-31T01:13:17.137Z,0
2017-01-31T01:14:17.081Z,0
2017-01-31T01:15:17.015Z,0
2017-01-31T01:16:16.951Z,0
2017-01-31T01:17:16.888Z,0
2017-01-31T01:18:16.824Z,0
2017-01-31T01:19:16.762Z,0
2017-01-31T01:20:16.700Z,0
2017-01-31T01:21:16.652Z,0
2017-01-31T01:22:16.573Z,0
2017-01-31T01:23:16.517Z,0
2017-01-31T01:24:16.448Z,0
2017-01-31T01:25:16.385Z,0
2017-01-31T01:26:16.670Z,0
2017-01-31T01:27:16.262Z,0
2017-01-31T01:28:16.199Z,0
2017-01-31T01:29:16.137Z,0
2017-01-31T01:30:16.321Z,0
2017-01-31T01:31:15.617Z,0
2017-01-31T01:32:15.945Z,0
2017-01-31T01:33:15.494Z,0
2017-01-31T01:34:15.849Z,0
2017-01-31T01:35:15.760Z,0
2017-01-31T01:36:15.304Z,0
2017-01-31T01:37:15.236Z,0
2017-01-31T01:38:15.175Z,0
2017-01-31T01:39:15.511Z,0
2017-01-31T01:40:15.053Z,0
2017-01-31T01:41:14.989Z,0
2017-01-31T01:42:14.928Z,0
2017-01-31T01:43:14.862Z,0
2017-01-31T01:44:14.798Z,0
2017-01-31T01:45:15.133Z,0
2017-01-31T01:46:15.068Z,0
2017-01-31T01:47:15.003Z,0
2017-01-31T01:48:14.943Z,0
2017-01-31T01:49:14.881Z,0
2017-01-31T01:50:14.817Z,0
2017-01-31T01:51:14.752Z,0
2017-01-31T01:52:14.693Z,0
2017-01-31T01:53:14.243Z,0
2017-01-31T01:54:14.179Z,0
2017-01-31T01:55:14.529Z,0
2017-01-31T01:56:14.451Z,0
2017-01-31T01:57:14.376Z,0
2017-01-31T01:58:14.320Z,0
2017-01-31T01:59:13.864Z,0
2017-01-31T02:00:14.439Z,0
2017-01-31T02:01:14.128Z,0
2017-01-31T02:02:14.072Z,0
2017-01-31T02:03:14.003Z,0
2017-01-31T02:04:15.149Z,0
2017-01-31T02:05:14.126Z,0
2017-01-31T02:06:13.813Z,0
2017-01-31T02:07:13.357Z,0
2017-01-31T02:08:13.300Z,0
2017-01-31T02:09:13.623Z,0
2017-01-31T02:10:13.564Z,0
2017-01-31T02:11:13.535Z,0
2017-01-31T02:12:13.436Z,0
2017-01-31T02:13:13.375Z,0
2017-01-31T02:14:13.323Z,0
2017-01-31T02:15:12.470Z,0
2017-01-31T02:16:13.213Z,0
2017-01-31T02:17:12.731Z,0
2017-01-31T02:18:12.668Z,0
2017-01-31T02:19:12.998Z,0
2017-01-31T02:20:12.942Z,0
2017-01-31T02:21:12.483Z,0
2017-01-31T02:22:12.814Z,0
2017-01-31T02:23:12.747Z,0
2017-01-31T02:24:12.293Z,0
2017-01-31T02:25:12.619Z,0
2017-01-31T02:26:12.167Z,0
2017-01-31T02:27:12.497Z,0
2017-01-31T02:28:12.431Z,0
2017-01-31T02:29:11.977Z,0
2017-01-31T02:30:12.326Z,0
2017-01-31T02:31:12.250Z,0
2017-01-31T02:32:12.237Z,0
2017-01-31T02:33:12.123Z,0
2017-01-31T02:34:11.691Z,0
2017-01-31T02:35:12.002Z,0
2017-01-31T02:36:11.546Z,0
2017-01-31T02:37:11.871Z,0
2017-01-31T02:38:11.434Z,0
2017-01-31T02:39:11.753Z,0
2017-01-31T02:40:11.679Z,0
2017-01-31T02:41:11.231Z,0
2017-01-31T02:42:10.775Z,0
2017-01-31T02:43:11.104Z,0
2017-01-31T02:44:11.044Z,0
2017-01-31T02:45:10.989Z,0
2017-01-31T02:46:11.302Z,0
2017-01-31T02:47:11.247Z,0
2017-01-31T02:48:11.181Z,0
2017-01-31T02:49:11.116Z,0
2017-01-31T02:50:11.054Z,0
2017-01-31T02:51:10.604Z,0
2017-01-31T02:52:10.938Z,0
2017-01-31T02:53:10.865Z,0
2017-01-31T02:54:10.420Z,0
2017-01-31T02:55:09.958Z,0
2017-01-31T02:56:10.679Z,0
2017-01-31T02:57:10.612Z,0
2017-01-31T02:58:10.161Z,0
2017-01-31T02:59:10.489Z,0
2017-01-31T03:00:10.433Z,0
2017-01-31T03:01:09.979Z,0
2017-01-31T03:02:09.912Z,0
2017-01-31T03:03:10.238Z,0
2017-01-31T03:04:09.784Z,0
2017-01-31T03:05:09.724Z,0
2017-01-31T03:06:09.668Z,0
2017-01-31T03:07:09.988Z,0
2017-01-31T03:08:09.920Z,0
2017-01-31T03:09:09.862Z,0
2017-01-31T03:10:09.407Z,0
2017-01-31T03:11:09.347Z,0
2017-01-31T03:12:09.672Z,0
2017-01-31T03:13:09.616Z,0
2017-01-31T03:14:09.550Z,0
2017-01-31T03:15:09.488Z,0
2017-01-31T03:16:09.425Z,0
2017-01-31T03:17:09.362Z,0
2017-01-31T03:18:08.912Z,0
2017-01-31T03:19:09.231Z,0
2017-01-31T03:20:08.391Z,0
2017-01-31T03:21:09.111Z,0
2017-01-31T03:22:08.659Z,0
2017-01-31T03:23:08.987Z,0
2017-01-31T03:24:08.924Z,0
2017-01-31T03:25:08.870Z,0
2017-01-31T03:26:08.408Z,0
2017-01-31T03:27:08.741Z,0
2017-01-31T03:28:08.691Z,0
2017-01-31T03:29:08.634Z,0
2017-01-31T03:30:08.155Z,0
2017-01-31T03:31:08.094Z,0
2017-01-31T03:32:08.420Z,0
2017-01-31T03:33:08.365Z,0
2017-01-31T03:34:08.298Z,0
2017-01-31T03:35:08.488Z,0
2017-01-31T03:36:08.170Z,0
2017-01-31T03:37:08.108Z,0
2017-01-31T03:38:08.043Z,0
2017-01-31T03:39:07.980Z,0
2017-01-31T03:40:07.141Z,0
2017-01-31T03:41:07.853Z,0
2017-01-31T03:42:07.789Z,0
2017-01-31T03:43:07.726Z,0
2017-01-31T03:44:07.484Z,0
2017-01-31T03:45:07.614Z,0
2017-01-31T03:46:07.542Z,0
2017-01-31T03:47:07.477Z,0
2017-01-31T03:48:07.415Z,0
2017-01-31T03:49:07.355Z,0
2017-01-31T03:50:07.306Z,0
2017-01-31T03:51:07.228Z,0
2017-01-31T03:52:07.179Z,0
2017-01-31T03:53:06.730Z,0
2017-01-31T03:54:06.645Z,0
2017-01-31T03:55:06.980Z,0
2017-01-31T03:56:06.917Z,0
2017-01-31T03:57:06.850Z,0
2017-01-31T03:58:06.788Z,0
2017-01-31T03:59:06.722Z,0
2017-01-31T04:00:06.911Z,0
2017-01-31T04:01:06.599Z,0
2017-01-31T04:02:06.548Z,0
2017-01-31T04:03:06.477Z,0
2017-01-31T04:04:06.418Z,0
2017-01-31T04:06:06.286Z,0
2017-01-31T04:07:06.225Z,0
2017-01-31T04:08:06.163Z,0
2017-01-31T04:09:06.100Z,0
2017-01-31T04:10:06.035Z,0
2017-01-31T04:11:05.974Z,0
2017-01-31T04:12:05.907Z,0
2017-01-31T04:13:05.849Z,0
2017-01-31T04:14:05.399Z,0
2017-01-31T04:15:04.940Z,0
2017-01-31T04:16:05.658Z,0
2017-01-31T04:17:05.593Z,0
2017-01-31T04:18:05.547Z,0
2017-01-31T04:19:05.492Z,0
2017-01-31T04:20:05.409Z,0
2017-01-31T04:21:05.341Z,0
2017-01-31T04:22:05.306Z,0
2017-01-31T04:23:05.222Z,0
2017-01-31T04:24:05.158Z,0
2017-01-31T04:25:04.708Z,0
2017-01-31T04:26:05.028Z,0
2017-01-31T04:27:04.969Z,0
2017-01-31T04:28:04.904Z,0
2017-01-31T04:29:04.863Z,0
2017-01-31T04:30:04.785Z,0
2017-01-31T04:31:04.722Z,0
2017-01-31T04:32:04.653Z,0
2017-01-31T04:33:04.594Z,0
2017-01-31T04:34:04.531Z,0
2017-01-31T04:35:04.475Z,0
2017-01-31T04:36:04.436Z,0
2017-01-31T04:37:04.342Z,0
2017-01-31T04:38:04.297Z,0
2017-01-31T04:39:04.214Z,0
2017-01-31T04:40:04.159Z,0
2017-01-31T04:41:04.089Z,0
2017-01-31T04:42:04.027Z,0
2017-01-31T04:43:03.969Z,0
2017-01-31T04:44:03.903Z,0
2017-01-31T04:45:03.837Z,0
2017-01-31T04:46:03.778Z,0
2017-01-31T04:47:03.713Z,0
2017-01-31T04:48:03.652Z,0
2017-01-31T04:49:03.203Z,0
2017-01-31T04:50:03.530Z,0
2017-01-31T04:51:03.463Z,0
2017-01-31T04:52:03.412Z,0
2017-01-31T04:53:03.338Z,0
2017-01-31T04:54:03.275Z,0
2017-01-31T04:55:03.462Z,0
2017-01-31T04:56:03.147Z,0
2017-01-31T04:57:03.089Z,0
2017-01-31T04:58:03.028Z,0
2017-01-31T04:59:02.960Z,0
2017-01-31T05:00:02.901Z,0
2017-01-31T05:01:02.865Z,0
2017-01-31T05:02:02.775Z,0
2017-01-31T05:03:02.709Z,0
2017-01-31T05:04:02.257Z,0
2017-01-31T05:05:02.583Z,0
2017-01-31T05:06:02.523Z,0
2017-01-31T05:07:02.458Z,0
2017-01-31T05:08:02.400Z,0
2017-01-31T05:09:02.334Z,0
2017-01-31T05:10:02.268Z,0
2017-01-31T05:11:02.208Z,0
2017-01-31T05:12:02.145Z,0
2017-01-31T05:13:02.077Z,0
2017-01-31T05:14:02.016Z,0
2017-01-31T05:15:01.955Z,0
2017-01-31T05:16:01.898Z,0
2017-01-31T05:17:01.864Z,0
2017-01-31T05:18:01.776Z,0
2017-01-31T05:19:01.707Z,0
2017-01-31T05:20:01.643Z,0
2017-01-31T05:21:01.579Z,0
2017-01-31T05:22:01.520Z,0
2017-01-31T05:23:01.484Z,0
2017-01-31T05:24:01.393Z,0
2017-01-31T05:25:01.355Z,0
2017-01-31T05:26:01.263Z,0
2017-01-31T05:27:01.200Z,0
2017-01-31T05:28:01.136Z,0
2017-01-31T05:29:01.277Z,0
2017-01-31T05:30:01.017Z,0
2017-01-31T05:31:01.162Z,0
2017-01-31T05:32:00.900Z,0
2017-01-31T05:33:00.828Z,0
2017-01-31T05:34:00.764Z,0
2017-01-31T05:35:00.699Z,0
2017-01-31T05:36:00.638Z,0
2017-01-31T05:37:00.577Z,0
2017-01-31T05:38:00.511Z,0
2017-01-31T05:39:00.448Z,0
2017-01-31T05:40:00.384Z,0
2017-01-31T05:41:00.324Z,0
2017-01-31T05:42:00.259Z,0
2017-01-31T05:43:00.212Z,0
2017-01-31T05:43:59.741Z,0
2017-01-31T05:45:00.069Z,0
2017-01-31T05:46:00.013Z,0
2017-01-31T05:46:59.946Z,0
2017-01-31T05:47:59.881Z,0
2017-01-31T05:48:59.430Z,0
2017-01-31T05:49:59.757Z,0
2017-01-31T05:50:59.692Z,0
2017-01-31T05:51:59.632Z,0
2017-01-31T05:52:59.570Z,0
2017-01-31T05:53:59.511Z,0
2017-01-31T05:54:59.443Z,0
2017-01-31T05:55:59.382Z,0
2017-01-31T05:56:59.350Z,0
2017-01-31T05:57:59.255Z,0
2017-01-31T05:58:59.227Z,0
2017-01-31T05:59:58.740Z,0
2017-01-31T06:00:59.066Z,0
2017-01-31T06:01:59.028Z,0
2017-01-31T06:02:58.943Z,0
2017-01-31T06:03:58.879Z,0
2017-01-31T06:04:58.812Z,0
2017-01-31T06:05:58.751Z,0
2017-01-31T06:06:58.697Z,0
2017-01-31T06:07:58.627Z,0
2017-01-31T06:08:58.605Z,0
2017-01-31T06:09:58.505Z,0
2017-01-31T06:10:58.435Z,0
2017-01-31T06:11:58.374Z,0
2017-01-31T06:12:57.922Z,0
2017-01-31T06:13:58.249Z,0
2017-01-31T06:14:58.199Z,0
2017-01-31T06:15:58.126Z,0
2017-01-31T06:16:58.063Z,0
2017-01-31T06:17:58.002Z,0
2017-01-31T06:18:57.944Z,0
2017-01-31T06:19:57.874Z,0
2017-01-31T06:20:57.810Z,0
2017-01-31T06:21:57.747Z,0
2017-01-31T06:22:57.680Z,0
2017-01-31T06:23:57.236Z,0
2017-01-31T06:24:57.563Z,0
2017-01-31T06:25:57.496Z,0
2017-01-31T06:26:57.462Z,0
2017-01-31T06:27:57.370Z,0
2017-01-31T06:28:57.304Z,0
2017-01-31T06:29:57.250Z,0
2017-01-31T06:30:57.184Z,0
2017-01-31T06:31:57.117Z,0
2017-01-31T06:32:57.053Z,0
2017-01-31T06:33:56.993Z,0
2017-01-31T06:34:56.929Z,0
2017-01-31T06:35:56.867Z,0
2017-01-31T06:36:56.804Z,0
2017-01-31T06:37:56.742Z,0
2017-01-31T06:38:56.678Z,0
2017-01-31T06:39:56.615Z,0
2017-01-31T06:40:56.549Z,0
2017-01-31T06:41:56.488Z,0
2017-01-31T06:42:56.434Z,0
2017-01-31T06:43:56.361Z,0
2017-01-31T06:44:56.307Z,0
2017-01-31T06:45:56.239Z,0
2017-01-31T06:46:56.178Z,0
2017-01-31T06:47:56.111Z,4
2017-01-31T06:48:56.272Z,4
2017-01-31T06:49:55.988Z,4
2017-01-31T06:50:55.950Z,4
2017-01-31T06:51:55.858Z,4
2017-01-31T06:52:55.801Z,4
2017-01-31T06:53:55.737Z,4
2017-01-31T06:54:55.670Z,4
2017-01-31T06:55:55.607Z,4
2017-01-31T06:56:55.544Z,4
2017-01-31T06:57:55.095Z,4
2017-01-31T06:58:55.036Z,4
2017-01-31T06:59:54.971Z,4
2017-01-31T07:00:55.303Z,4
2017-01-31T07:01:55.232Z,4
2017-01-31T07:02:55.173Z,4
2017-01-31T07:03:55.105Z,4
2017-01-31T07:04:55.046Z,4
2017-01-31T07:05:54.981Z,4
2017-01-31T07:06:54.922Z,4
2017-01-31T07:07:54.856Z,4
2017-01-31T07:08:54.829Z,4
2017-01-31T07:09:54.728Z,4
2017-01-31T07:10:54.671Z,4
2017-01-31T07:11:54.607Z,4
2017-01-31T07:12:54.544Z,4
2017-01-31T07:13:54.478Z,4
2017-01-31T07:14:54.417Z,4
2017-01-31T07:15:54.357Z,4
2017-01-31T07:16:54.294Z,4
2017-01-31T07:17:54.229Z,4
2017-01-31T07:18:54.169Z,4
2017-01-31T07:19:54.098Z,4
2017-01-31T07:20:54.040Z,4
2017-01-31T07:21:53.974Z,4
2017-01-31T07:22:53.913Z,4
2017-01-31T07:23:54.509Z,4
2017-01-31T07:24:53.786Z,4
2017-01-31T07:25:53.722Z,4
2017-01-31T07:26:53.666Z,4
2017-01-31T07:27:53.599Z,4
2017-01-31T07:28:53.547Z,4
2017-01-31T07:29:53.677Z,4
2017-01-31T07:30:53.408Z,4
2017-01-31T07:31:53.348Z,4
2017-01-31T07:32:53.283Z,4
2017-01-31T07:33:53.219Z,4
2017-01-31T07:34:53.157Z,4
2017-01-31T07:35:53.101Z,4
2017-01-31T07:36:53.031Z,4
2017-01-31T07:37:52.977Z,4
2017-01-31T07:38:52.939Z,8
2017-01-31T07:39:52.849Z,8
2017-01-31T07:40:52.784Z,8
2017-01-31T07:41:52.719Z,8
2017-01-31T07:42:52.656Z,8
2017-01-31T07:43:52.591Z,8
2017-01-31T07:44:52.529Z,8
2017-01-31T07:45:52.467Z,8
2017-01-31T07:46:52.408Z,8
2017-01-31T07:47:52.351Z,8
2017-01-31T07:48:52.288Z,8
2017-01-31T07:49:52.215Z,8
2017-01-31T07:50:52.156Z,8
2017-01-31T07:51:52.092Z,8
2017-01-31T07:52:52.028Z,8
2017-01-31T07:53:51.966Z,8
2017-01-31T07:54:51.907Z,12
2017-01-31T07:55:51.842Z,12
2017-01-31T07:56:51.774Z,12
2017-01-31T07:57:51.718Z,12
2017-01-31T07:58:51.647Z,8
2017-01-31T07:59:51.590Z,8
2017-01-31T08:00:51.559Z,12
2017-01-31T08:01:51.462Z,12
2017-01-31T08:02:51.407Z,12
2017-01-31T08:03:51.361Z,8
2017-01-31T08:04:51.276Z,12
2017-01-31T08:05:50.849Z,12
2017-01-31T08:06:51.163Z,8
2017-01-31T08:07:51.088Z,8
2017-01-31T08:08:50.636Z,8
2017-01-31T08:09:50.573Z,8
2017-01-31T08:10:50.898Z,8
2017-01-31T08:11:50.843Z,8
2017-01-31T08:12:50.775Z,8
2017-01-31T08:13:50.713Z,8
2017-01-31T08:14:50.257Z,8
2017-01-31T08:15:50.585Z,8
2017-01-31T08:16:50.516Z,8
2017-01-31T08:17:50.459Z,8
2017-01-31T08:18:50.396Z,8
2017-01-31T08:19:50.341Z,8
2017-01-31T08:20:50.271Z,8
2017-01-31T08:21:50.208Z,8
2017-01-31T08:22:49.749Z,8
2017-01-31T08:23:49.696Z,8
2017-01-31T08:24:50.023Z,8
2017-01-31T08:25:49.956Z,8
2017-01-31T08:26:49.499Z,8
2017-01-31T08:27:49.845Z,8
2017-01-31T08:28:49.800Z,8
2017-01-31T08:29:49.720Z,8
2017-01-31T08:30:50.384Z,8
2017-01-31T08:31:49.235Z,8
2017-01-31T08:32:48.774Z,8
2017-01-31T08:33:49.470Z,8
2017-01-31T08:34:49.398Z,12
2017-01-31T08:35:48.968Z,8
2017-01-31T08:36:49.273Z,12
2017-01-31T08:37:49.198Z,12
2017-01-31T08:38:49.145Z,12
2017-01-31T08:39:49.085Z,12
2017-01-31T08:40:49.108Z,8
2017-01-31T08:41:48.945Z,12
2017-01-31T08:42:48.884Z,12
2017-01-31T08:43:48.826Z,12
2017-01-31T08:44:48.764Z,12
2017-01-31T08:45:48.693Z,12
2017-01-31T08:46:48.660Z,12
2017-01-31T08:47:48.569Z,12
2017-01-31T08:48:48.506Z,12
2017-01-31T08:49:48.447Z,12
2017-01-31T08:50:48.691Z,12
2017-01-31T08:51:48.330Z,12
2017-01-31T08:52:48.256Z,12
2017-01-31T08:53:48.201Z,12
2017-01-31T08:54:48.131Z,12
2017-01-31T08:55:48.027Z,12
2017-01-31T08:56:47.615Z,12
2017-01-31T08:57:47.939Z,12
2017-01-31T08:58:47.490Z,12
2017-01-31T08:59:47.823Z,12
2017-01-31T09:00:48.116Z,12
2017-01-31T09:01:47.698Z,12
2017-01-31T09:02:47.629Z,12
2017-01-31T09:03:47.568Z,12
2017-01-31T09:04:47.506Z,112
2017-01-31T09:05:47.938Z,144
2017-01-31T09:06:47.406Z,152
2017-01-31T09:07:47.317Z,152
2017-01-31T09:08:47.250Z,152
2017-01-31T09:09:47.192Z,156
2017-01-31T09:10:47.475Z,152
2017-01-31T09:11:47.070Z,152
2017-01-31T09:12:47.007Z,152
2017-01-31T09:13:46.935Z,152
2017-01-31T09:14:46.870Z,152
2017-01-31T09:15:46.822Z,152
2017-01-31T09:16:46.753Z,152
2017-01-31T09:17:46.686Z,152
2017-01-31T09:18:46.649Z,152
2017-01-31T09:19:46.563Z,152
2017-01-31T09:20:46.744Z,152
2017-01-31T09:21:46.437Z,152
2017-01-31T09:22:45.979Z,152
2017-01-31T09:23:46.310Z,152
2017-01-31T09:24:46.244Z,152
2017-01-31T09:25:46.211Z,152
2017-01-31T09:26:46.126Z,152
2017-01-31T09:27:46.064Z,152
2017-01-31T09:28:45.994Z,152
2017-01-31T09:29:45.929Z,152
2017-01-31T09:30:45.891Z,152
2017-01-31T09:31:45.811Z,152
2017-01-31T09:32:45.742Z,152
2017-01-31T09:33:45.677Z,152
2017-01-31T09:34:45.617Z,152
2017-01-31T09:35:45.906Z,152
2017-01-31T09:36:45.492Z,152
2017-01-31T09:37:45.429Z,152
2017-01-31T09:38:45.370Z,152
2017-01-31T09:39:44.912Z,152
2017-01-31T09:40:45.239Z,152
2017-01-31T09:41:45.177Z,152
2017-01-31T09:42:44.726Z,148
2017-01-31T09:43:45.055Z,148
2017-01-31T09:44:44.987Z,152
2017-01-31T09:45:44.931Z,152
2017-01-31T09:46:44.863Z,152
2017-01-31T09:47:44.803Z,152
2017-01-31T09:48:44.739Z,152
2017-01-31T09:49:44.674Z,152
2017-01-31T09:50:44.612Z,152
2017-01-31T09:51:44.551Z,152
2017-01-31T09:52:44.486Z,152
2017-01-31T09:53:44.036Z,152
2017-01-31T09:54:44.364Z,152
2017-01-31T09:55:43.917Z,152
2017-01-31T09:56:43.848Z,20
2017-01-31T09:57:43.781Z,20
2017-01-31T09:58:43.789Z,16
2017-01-31T09:59:44.049Z,16
2017-01-31T10:00:44.021Z,16
2017-01-31T10:01:43.952Z,20
2017-01-31T10:02:43.887Z,16
2017-01-31T10:03:43.795Z,16
2017-01-31T10:04:43.342Z,16
2017-01-31T10:05:43.919Z,20
2017-01-31T10:06:43.626Z,16
2017-01-31T10:07:43.553Z,16
2017-01-31T10:08:43.481Z,20
2017-01-31T10:09:43.428Z,16
2017-01-31T10:10:43.660Z,16
2017-01-31T10:11:43.305Z,16
2017-01-31T10:12:43.240Z,16
2017-01-31T10:13:43.179Z,20
2017-01-31T10:14:42.714Z,16
2017-01-31T10:15:43.393Z,16
2017-01-31T10:16:42.981Z,16
2017-01-31T10:17:42.929Z,20
2017-01-31T10:18:42.859Z,20
2017-01-31T10:19:42.410Z,16
2017-01-31T10:20:42.347Z,20
2017-01-31T10:21:42.670Z,16
2017-01-31T10:22:42.608Z,20
2017-01-31T10:23:42.547Z,20
2017-01-31T10:24:42.479Z,16
2017-01-31T10:25:42.423Z,16
2017-01-31T10:26:42.357Z,16
2017-01-31T10:27:42.288Z,136
2017-01-31T10:28:42.231Z,152
2017-01-31T10:29:41.818Z,160
2017-01-31T10:30:42.108Z,160
2017-01-31T10:31:41.652Z,156
2017-01-31T10:32:41.985Z,160
2017-01-31T10:33:41.526Z,160
2017-01-31T10:34:41.855Z,160
2017-01-31T10:35:41.519Z,160
2017-01-31T10:36:41.770Z,156
2017-01-31T10:37:41.808Z,156
2017-01-31T10:38:41.212Z,156
2017-01-31T10:39:41.864Z,156
2017-01-31T10:40:41.511Z,160
2017-01-31T10:41:41.469Z,156
2017-01-31T10:42:41.356Z,156
2017-01-31T10:43:41.361Z,156
2017-01-31T10:44:41.282Z,156
2017-01-31T10:45:41.170Z,152
2017-01-31T10:46:41.108Z,152
2017-01-31T10:47:41.053Z,152
2017-01-31T10:48:41.077Z,152
2017-01-31T10:49:40.924Z,152
2017-01-31T10:50:40.917Z,152
2017-01-31T10:51:40.789Z,152
2017-01-31T10:52:40.733Z,156
2017-01-31T10:53:40.667Z,152
2017-01-31T10:54:40.604Z,152
2017-01-31T10:55:40.538Z,152
2017-01-31T10:56:40.479Z,152
2017-01-31T10:57:40.419Z,152
2017-01-31T10:58:40.357Z,148
2017-01-31T10:59:40.292Z,152
2017-01-31T11:00:40.225Z,152
2017-01-31T11:01:40.165Z,152
2017-01-31T11:02:40.108Z,152
2017-01-31T11:03:39.650Z,152
2017-01-31T11:04:39.982Z,152
2017-01-31T11:05:39.916Z,152
2017-01-31T11:06:39.850Z,152
2017-01-31T11:07:39.410Z,16
2017-01-31T11:08:39.728Z,20
2017-01-31T11:09:39.663Z,16
2017-01-31T11:10:39.600Z,20
2017-01-31T11:11:39.539Z,20
2017-01-31T11:12:39.477Z,24
2017-01-31T11:13:39.029Z,20
2017-01-31T11:14:39.552Z,16
2017-01-31T11:15:39.302Z,16
2017-01-31T11:16:39.231Z,16
2017-01-31T11:17:39.167Z,20
2017-01-31T11:18:39.116Z,20
2017-01-31T11:19:38.653Z,20
2017-01-31T11:20:38.980Z,16
2017-01-31T11:21:38.913Z,16
2017-01-31T11:22:38.856Z,12
2017-01-31T11:23:38.791Z,16
2017-01-31T11:24:38.732Z,16
2017-01-31T11:25:38.314Z,16
2017-01-31T11:26:38.602Z,16
2017-01-31T11:27:38.148Z,16
2017-01-31T11:28:38.471Z,12
2017-01-31T11:29:38.412Z,16
2017-01-31T11:30:38.351Z,16
2017-01-31T11:31:38.288Z,16
2017-01-31T11:32:38.230Z,16
2017-01-31T11:33:38.178Z,12
2017-01-31T11:34:38.101Z,16
2017-01-31T11:35:37.650Z,16
2017-01-31T11:36:37.983Z,16
2017-01-31T11:37:37.527Z,16
2017-01-31T11:38:37.893Z,12
2017-01-31T11:39:37.789Z,16
2017-01-31T11:40:37.975Z,16
2017-01-31T11:41:37.693Z,16
2017-01-31T11:42:37.603Z,12
2017-01-31T11:43:37.547Z,16
2017-01-31T11:44:37.476Z,16
2017-01-31T11:45:37.421Z,16
2017-01-31T11:46:37.357Z,12
2017-01-31T11:47:37.289Z,12
2017-01-31T11:48:37.224Z,12
2017-01-31T11:49:37.165Z,12
2017-01-31T11:50:36.623Z,12
2017-01-31T11:51:36.656Z,12
2017-01-31T11:52:36.976Z,12
2017-01-31T11:53:36.915Z,16
2017-01-31T11:54:36.859Z,16
2017-01-31T11:55:37.038Z,12
2017-01-31T11:56:36.734Z,16
2017-01-31T11:57:36.664Z,16
2017-01-31T11:58:36.608Z,16
2017-01-31T11:59:36.568Z,16
2017-01-31T12:00:36.476Z,16
2017-01-31T12:01:36.410Z,16
2017-01-31T12:02:36.358Z,16
2017-01-31T12:03:36.303Z,12
2017-01-31T12:04:36.253Z,16
2017-01-31T12:05:36.465Z,16
2017-01-31T12:06:36.098Z,12
2017-01-31T12:07:36.037Z,16
2017-01-31T12:08:35.977Z,16
2017-01-31T12:09:35.914Z,16
2017-01-31T12:10:36.202Z,12
2017-01-31T12:11:35.798Z,12
2017-01-31T12:12:35.731Z,16
2017-01-31T12:13:35.672Z,16
2017-01-31T12:14:35.600Z,16
2017-01-31T12:15:35.535Z,16
2017-01-31T12:16:35.641Z,16
2017-01-31T12:17:35.418Z,12
2017-01-31T12:18:35.354Z,12
2017-01-31T12:19:35.289Z,12
2017-01-31T12:20:35.234Z,12
2017-01-31T12:21:35.164Z,16
2017-01-31T12:22:35.130Z,16
2017-01-31T12:23:35.035Z,16
2017-01-31T12:24:34.971Z,12
2017-01-31T12:25:34.909Z,16
2017-01-31T12:26:34.850Z,16
2017-01-31T12:27:34.793Z,16
2017-01-31T12:28:34.721Z,16
2017-01-31T12:29:34.662Z,16
2017-01-31T12:30:34.603Z,16
2017-01-31T12:31:34.538Z,16
2017-01-31T12:32:34.474Z,12
2017-01-31T12:33:34.025Z,12
2017-01-31T12:34:33.957Z,12
2017-01-31T12:35:34.296Z,16
2017-01-31T12:36:34.225Z,16
2017-01-31T12:37:34.159Z,16
2017-01-31T12:38:34.098Z,16
2017-01-31T12:39:34.040Z,12
2017-01-31T12:40:33.972Z,12
2017-01-31T12:41:33.915Z,12
2017-01-31T12:42:33.848Z,12
2017-01-31T12:43:33.787Z,12
2017-01-31T12:44:33.720Z,12
2017-01-31T12:45:33.660Z,12
2017-01-31T12:46:33.600Z,12
2017-01-31T12:47:33.539Z,12
2017-01-31T12:48:33.495Z,12
2017-01-31T12:49:33.029Z,12
2017-01-31T12:50:33.348Z,12
2017-01-31T12:51:33.294Z,12
2017-01-31T12:52:33.221Z,12
2017-01-31T12:53:33.161Z,12
2017-01-31T12:54:33.108Z,12
2017-01-31T12:55:33.041Z,12
2017-01-31T12:56:32.969Z,12
2017-01-31T12:57:32.916Z,12
2017-01-31T12:58:32.452Z,12
2017-01-31T12:59:32.780Z,12
2017-01-31T13:00:32.742Z,12
2017-01-31T13:01:32.658Z,12
2017-01-31T13:02:32.239Z,12
2017-01-31T13:03:32.145Z,12
2017-01-31T13:04:32.486Z,12
2017-01-31T13:05:32.017Z,12
2017-01-31T13:06:32.348Z,12
2017-01-31T13:07:32.280Z,12
2017-01-31T13:08:32.046Z,12
2017-01-31T13:09:32.156Z,12
2017-01-31T13:10:31.702Z,12
2017-01-31T13:11:32.034Z,12
2017-01-31T13:12:31.967Z,12
2017-01-31T13:13:31.905Z,12
2017-01-31T13:14:31.847Z,12
2017-01-31T13:15:32.036Z,16
2017-01-31T13:16:31.716Z,16
2017-01-31T13:17:31.658Z,16
2017-01-31T13:18:31.600Z,16
2017-01-31T13:19:31.532Z,12
2017-01-31T13:20:31.467Z,12
2017-01-31T13:21:31.437Z,16
2017-01-31T13:22:31.355Z,16
2017-01-31T13:23:30.899Z,16
2017-01-31T13:24:31.219Z,12
2017-01-31T13:25:31.182Z,12
2017-01-31T13:26:31.096Z,12
2017-01-31T13:27:31.027Z,12
2017-01-31T13:28:30.967Z,12
2017-01-31T13:29:30.512Z,12
2017-01-31T13:30:30.844Z,12
2017-01-31T13:31:30.779Z,12
2017-01-31T13:32:30.718Z,12
2017-01-31T13:33:30.652Z,12
2017-01-31T13:34:30.590Z,12
2017-01-31T13:35:30.532Z,12
2017-01-31T13:36:30.464Z,12
2017-01-31T13:37:30.012Z,12
2017-01-31T13:38:30.344Z,12
2017-01-31T13:39:30.280Z,12
2017-01-31T13:40:30.216Z,12
2017-01-31T13:41:30.158Z,12
2017-01-31T13:42:30.098Z,12
2017-01-31T13:43:30.027Z,16
2017-01-31T13:44:30.121Z,16
2017-01-31T13:45:29.904Z,16
2017-01-31T13:46:29.838Z,16
2017-01-31T13:47:29.781Z,16
2017-01-31T13:48:29.712Z,16
2017-01-31T13:49:29.658Z,12
2017-01-31T13:50:29.588Z,12
2017-01-31T13:51:29.526Z,12
2017-01-31T13:52:29.466Z,12
2017-01-31T13:53:29.419Z,12
2017-01-31T13:54:29.412Z,12
2017-01-31T13:55:29.279Z,12
2017-01-31T13:56:29.328Z,12
2017-01-31T13:57:29.154Z,12
2017-01-31T13:58:29.095Z,12
2017-01-31T13:59:29.026Z,12
2017-01-31T14:00:28.968Z,12
2017-01-31T14:01:28.924Z,12
2017-01-31T14:02:28.850Z,12
2017-01-31T14:03:28.389Z,12
2017-01-31T14:04:28.707Z,12
2017-01-31T14:05:28.685Z,12
2017-01-31T14:06:28.194Z,12
2017-01-31T14:07:28.524Z,12
2017-01-31T14:08:28.465Z,12
2017-01-31T14:09:28.398Z,12
2017-01-31T14:10:28.341Z,12
2017-01-31T14:11:28.272Z,12
2017-01-31T14:12:28.204Z,12
2017-01-31T14:13:27.758Z,12
2017-01-31T14:14:27.695Z,12
2017-01-31T14:15:28.027Z,12
2017-01-31T14:16:27.959Z,12
2017-01-31T14:17:27.897Z,12
2017-01-31T14:18:27.476Z,12
2017-01-31T14:19:27.771Z,12
2017-01-31T14:20:27.567Z,12
2017-01-31T14:21:27.641Z,12
2017-01-31T14:22:27.586Z,12
2017-01-31T14:23:27.515Z,12
2017-01-31T14:24:27.456Z,12
2017-01-31T14:25:27.002Z,12
2017-01-31T14:26:26.580Z,12
2017-01-31T14:27:26.878Z,12
2017-01-31T14:28:27.204Z,12
2017-01-31T14:29:27.183Z,12
2017-01-31T14:30:27.079Z,12
2017-01-31T14:31:27.023Z,12
2017-01-31T14:32:26.569Z,12
2017-01-31T14:33:26.890Z,12
2017-01-31T14:34:26.824Z,12
2017-01-31T14:35:26.769Z,16
2017-01-31T14:36:26.758Z,12
2017-01-31T14:37:26.741Z,12
2017-01-31T14:38:26.579Z,12
2017-01-31T14:39:26.129Z,12
2017-01-31T14:40:26.752Z,12
2017-01-31T14:41:26.396Z,12
2017-01-31T14:42:26.331Z,12
2017-01-31T14:43:25.876Z,12
2017-01-31T14:44:26.205Z,12
2017-01-31T14:45:26.137Z,12
2017-01-31T14:46:26.076Z,12
2017-01-31T14:47:26.016Z,12
2017-01-31T14:48:25.948Z,12
2017-01-31T14:49:25.883Z,12
2017-01-31T14:50:26.079Z,12
2017-01-31T14:51:25.875Z,16
2017-01-31T14:52:25.730Z,12
2017-01-31T14:53:25.661Z,12
2017-01-31T14:54:25.573Z,12
2017-01-31T14:55:25.509Z,12
2017-01-31T14:56:25.453Z,12
2017-01-31T14:57:25.389Z,12
2017-01-31T14:58:25.330Z,12
2017-01-31T14:59:25.345Z,12
2017-01-31T15:00:25.194Z,12
2017-01-31T15:01:25.143Z,12
2017-01-31T15:02:25.069Z,12
2017-01-31T15:03:25.009Z,12
2017-01-31T15:04:24.946Z,12
2017-01-31T15:05:24.884Z,8
2017-01-31T15:06:24.819Z,8
2017-01-31T15:07:24.759Z,8
2017-01-31T15:08:24.799Z,8
2017-01-31T15:09:24.633Z,8
2017-01-31T15:10:24.582Z,8
2017-01-31T15:11:24.508Z,8
2017-01-31T15:12:24.460Z,8
2017-01-31T15:13:24.382Z,8
2017-01-31T15:14:24.325Z,8
2017-01-31T15:15:24.266Z,8
2017-01-31T15:16:23.801Z,8
2017-01-31T15:17:24.133Z,8
2017-01-31T15:18:24.067Z,8
2017-01-31T15:19:24.007Z,8
2017-01-31T15:20:23.951Z,8
2017-01-31T15:21:23.889Z,8
2017-01-31T15:22:23.817Z,8
2017-01-31T15:23:23.750Z,8
2017-01-31T15:24:23.694Z,8
2017-01-31T15:25:23.637Z,8
2017-01-31T15:26:22.970Z,8
2017-01-31T15:27:23.502Z,8
2017-01-31T15:28:23.457Z,8
2017-01-31T15:29:23.379Z,8
2017-01-31T15:30:37.811Z,8